sensor_id;sensor_type;location;lat;lon;timestamp;P1;durP1;ratioP1;P2;durP2;ratioP2
8737;SDS011;4405;49.272;8.590;2022-11-15T00:01:32;7.50;;;6.47;;
8737;SDS011;4405;49.272;8.590;2022-11-15T00:03:59;9.83;;;6.47;;
8737;SDS011;4405;49.272;8.590;2022-11-15T00:06:25;7.70;;;6.53;;
8737;SDS011;4405;49.272;8.590;2022-11-15T00:08:52;6.80;;;5.83;;
8737;SDS011;4405;49.272;8.590;2022-11-15T00:11:18;8.70;;;5.47;;
8737;SDS011;4405;49.272;8.590;2022-11-15T00:13:44;6.60;;;6.00;;
8737;SDS011;4405;49.272;8.590;2022-11-15T00:16:12;7.87;;;5.67;;
8737;SDS011;4405;49.272;8.590;2022-11-15T00:18:38;6.17;;;5.57;;
8737;SDS011;4405;49.272;8.590;2022-11-15T00:21:05;5.30;;;4.80;;
8737;SDS011;4405;49.272;8.590;2022-11-15T00:23:32;5.90;;;5.40;;
8737;SDS011;4405;49.272;8.590;2022-11-15T00:25:59;5.33;;;4.83;;
8737;SDS011;4405;49.272;8.590;2022-11-15T00:28:25;6.70;;;4.90;;
8737;SDS011;4405;49.272;8.590;2022-11-15T00:30:52;5.93;;;5.07;;
8737;SDS011;4405;49.272;8.590;2022-11-15T00:33:19;5.70;;;4.97;;
8737;SDS011;4405;49.272;8.590;2022-11-15T00:35:46;6.23;;;5.43;;
8737;SDS011;4405;49.272;8.590;2022-11-15T00:38:12;5.57;;;5.17;;
8737;SDS011;4405;49.272;8.590;2022-11-15T00:40:38;5.30;;;4.83;;
8737;SDS011;4405;49.272;8.590;2022-11-15T00:43:05;5.67;;;5.17;;
8737;SDS011;4405;49.272;8.590;2022-11-15T00:45:31;5.90;;;5.13;;
8737;SDS011;4405;49.272;8.590;2022-11-15T00:47:57;5.30;;;4.80;;
8737;SDS011;4405;49.272;8.590;2022-11-15T00:50:25;4.97;;;4.57;;
8737;SDS011;4405;49.272;8.590;2022-11-15T00:52:51;5.10;;;4.60;;
8737;SDS011;4405;49.272;8.590;2022-11-15T00:55:18;5.70;;;5.20;;
8737;SDS011;4405;49.272;8.590;2022-11-15T00:57:45;6.57;;;4.87;;
8737;SDS011;4405;49.272;8.590;2022-11-15T01:00:12;6.27;;;4.87;;
8737;SDS011;4405;49.272;8.590;2022-11-15T01:02:38;7.17;;;4.80;;
8737;SDS011;4405;49.272;8.590;2022-11-15T01:05:05;4.90;;;4.50;;
8737;SDS011;4405;49.272;8.590;2022-11-15T01:07:33;4.77;;;4.30;;
8737;SDS011;4405;49.272;8.590;2022-11-15T01:09:59;5.00;;;4.70;;
8737;SDS011;4405;49.272;8.590;2022-11-15T01:12:26;5.07;;;4.50;;
8737;SDS011;4405;49.272;8.590;2022-11-15T01:14:52;6.20;;;4.37;;
8737;SDS011;4405;49.272;8.590;2022-11-15T01:17:18;7.80;;;7.20;;
8737;SDS011;4405;49.272;8.590;2022-11-15T01:19:45;5.70;;;5.17;;
8737;SDS011;4405;49.272;8.590;2022-11-15T01:22:11;5.47;;;4.97;;
8737;SDS011;4405;49.272;8.590;2022-11-15T01:24:39;8.07;;;5.03;;
8737;SDS011;4405;49.272;8.590;2022-11-15T01:27:05;8.30;;;4.60;;
8737;SDS011;4405;49.272;8.590;2022-11-15T01:29:31;5.43;;;4.93;;
8737;SDS011;4405;49.272;8.590;2022-11-15T01:31:58;4.80;;;4.40;;
8737;SDS011;4405;49.272;8.590;2022-11-15T01:34:24;4.90;;;4.50;;
8737;SDS011;4405;49.272;8.590;2022-11-15T01:36:51;6.70;;;4.80;;
8737;SDS011;4405;49.272;8.590;2022-11-15T01:39:17;5.47;;;5.07;;
8737;SDS011;4405;49.272;8.590;2022-11-15T01:41:45;6.83;;;5.50;;
8737;SDS011;4405;49.272;8.590;2022-11-15T01:46:57;9.67;;;6.23;;
8737;SDS011;4405;49.272;8.590;2022-11-15T01:49:23;5.73;;;5.23;;
8737;SDS011;4405;49.272;8.590;2022-11-15T01:51:50;6.97;;;5.07;;
8737;SDS011;4405;49.272;8.590;2022-11-15T01:54:17;5.57;;;5.07;;
8737;SDS011;4405;49.272;8.590;2022-11-15T01:56:46;7.10;;;5.33;;
8737;SDS011;4405;49.272;8.590;2022-11-15T01:59:14;5.10;;;4.60;;
8737;SDS011;4405;49.272;8.590;2022-11-15T02:01:40;5.10;;;4.37;;
8737;SDS011;4405;49.272;8.590;2022-11-15T02:04:09;5.30;;;4.80;;
8737;SDS011;4405;49.272;8.590;2022-11-15T02:06:37;5.70;;;4.97;;
8737;SDS011;4405;49.272;8.590;2022-11-15T02:09:04;4.63;;;4.23;;
8737;SDS011;4405;49.272;8.590;2022-11-15T02:11:30;4.40;;;4.10;;
8737;SDS011;4405;49.272;8.590;2022-11-15T02:13:58;4.63;;;4.33;;
8737;SDS011;4405;49.272;8.590;2022-11-15T02:16:27;5.17;;;4.67;;
8737;SDS011;4405;49.272;8.590;2022-11-15T02:18:57;4.50;;;4.20;;
8737;SDS011;4405;49.272;8.590;2022-11-15T02:21:27;5.23;;;4.80;;
8737;SDS011;4405;49.272;8.590;2022-11-15T02:23:59;4.63;;;4.10;;
8737;SDS011;4405;49.272;8.590;2022-11-15T02:26:41;4.80;;;4.40;;
8737;SDS011;4405;49.272;8.590;2022-11-15T02:29:19;7.20;;;5.67;;
8737;SDS011;4405;49.272;8.590;2022-11-15T02:31:53;6.13;;;5.63;;
8737;SDS011;4405;49.272;8.590;2022-11-15T02:34:28;8.40;;;6.50;;
8737;SDS011;4405;49.272;8.590;2022-11-15T02:36:59;6.83;;;6.00;;
8737;SDS011;4405;49.272;8.590;2022-11-15T02:39:31;7.33;;;6.40;;
8737;SDS011;4405;49.272;8.590;2022-11-15T02:42:02;7.37;;;5.47;;
8737;SDS011;4405;49.272;8.590;2022-11-15T02:44:30;6.30;;;4.30;;
8737;SDS011;4405;49.272;8.590;2022-11-15T02:46:58;4.60;;;4.20;;
8737;SDS011;4405;49.272;8.590;2022-11-15T02:49:41;5.07;;;4.67;;
8737;SDS011;4405;49.272;8.590;2022-11-15T02:52:08;4.80;;;4.40;;
8737;SDS011;4405;49.272;8.590;2022-11-15T02:54:34;4.37;;;3.97;;
8737;SDS011;4405;49.272;8.590;2022-11-15T02:57:02;4.60;;;4.30;;
8737;SDS011;4405;49.272;8.590;2022-11-15T02:59:42;4.97;;;4.57;;
8737;SDS011;4405;49.272;8.590;2022-11-15T03:02:18;7.20;;;4.43;;
8737;SDS011;4405;49.272;8.590;2022-11-15T03:04:49;4.33;;;3.93;;
8737;SDS011;4405;49.272;8.590;2022-11-15T03:07:19;5.33;;;4.00;;
8737;SDS011;4405;49.272;8.590;2022-11-15T03:09:49;4.80;;;4.23;;
8737;SDS011;4405;49.272;8.590;2022-11-15T03:12:19;5.03;;;4.10;;
8737;SDS011;4405;49.272;8.590;2022-11-15T03:14:51;4.60;;;4.17;;
8737;SDS011;4405;49.272;8.590;2022-11-15T03:17:23;4.43;;;4.03;;
8737;SDS011;4405;49.272;8.590;2022-11-15T03:19:50;5.80;;;4.00;;
8737;SDS011;4405;49.272;8.590;2022-11-15T03:22:17;4.63;;;4.23;;
8737;SDS011;4405;49.272;8.590;2022-11-15T03:24:45;5.57;;;3.80;;
8737;SDS011;4405;49.272;8.590;2022-11-15T03:27:12;5.13;;;4.10;;
8737;SDS011;4405;49.272;8.590;2022-11-15T03:29:41;4.37;;;3.97;;
8737;SDS011;4405;49.272;8.590;2022-11-15T03:32:10;7.50;;;4.13;;
8737;SDS011;4405;49.272;8.590;2022-11-15T03:34:41;4.37;;;3.97;;
8737;SDS011;4405;49.272;8.590;2022-11-15T03:37:07;6.23;;;4.30;;
8737;SDS011;4405;49.272;8.590;2022-11-15T03:39:35;4.30;;;3.90;;
8737;SDS011;4405;49.272;8.590;2022-11-15T03:42:04;5.13;;;4.03;;
8737;SDS011;4405;49.272;8.590;2022-11-15T03:44:35;4.13;;;3.80;;
8737;SDS011;4405;49.272;8.590;2022-11-15T03:47:03;4.40;;;4.00;;
8737;SDS011;4405;49.272;8.590;2022-11-15T03:49:30;4.67;;;4.10;;
8737;SDS011;4405;49.272;8.590;2022-11-15T03:52:00;4.83;;;3.60;;
8737;SDS011;4405;49.272;8.590;2022-11-15T03:54:27;5.13;;;3.93;;
8737;SDS011;4405;49.272;8.590;2022-11-15T03:56:53;4.10;;;3.70;;
8737;SDS011;4405;49.272;8.590;2022-11-15T03:59:20;4.53;;;3.73;;
8737;SDS011;4405;49.272;8.590;2022-11-15T04:01:46;4.53;;;3.97;;
8737;SDS011;4405;49.272;8.590;2022-11-15T04:04:12;4.20;;;3.80;;
8737;SDS011;4405;49.272;8.590;2022-11-15T04:06:39;4.07;;;3.67;;
8737;SDS011;4405;49.272;8.590;2022-11-15T04:09:07;3.53;;;3.33;;
8737;SDS011;4405;49.272;8.590;2022-11-15T04:11:33;4.03;;;3.73;;
8737;SDS011;4405;49.272;8.590;2022-11-15T04:13:59;4.13;;;3.83;;
8737;SDS011;4405;49.272;8.590;2022-11-15T04:16:26;4.70;;;3.50;;
8737;SDS011;4405;49.272;8.590;2022-11-15T04:18:52;4.13;;;3.60;;
8737;SDS011;4405;49.272;8.590;2022-11-15T04:21:32;3.67;;;3.47;;
8737;SDS011;4405;49.272;8.590;2022-11-15T04:24:17;4.63;;;3.43;;
8737;SDS011;4405;49.272;8.590;2022-11-15T04:26:44;3.87;;;3.33;;
8737;SDS011;4405;49.272;8.590;2022-11-15T04:29:10;3.60;;;3.40;;
8737;SDS011;4405;49.272;8.590;2022-11-15T04:31:54;3.87;;;3.37;;
8737;SDS011;4405;49.272;8.590;2022-11-15T04:34:20;3.93;;;3.53;;
8737;SDS011;4405;49.272;8.590;2022-11-15T04:36:47;4.20;;;3.67;;
8737;SDS011;4405;49.272;8.590;2022-11-15T04:39:31;3.73;;;3.23;;
8737;SDS011;4405;49.272;8.590;2022-11-15T04:41:59;8.60;;;3.97;;
8737;SDS011;4405;49.272;8.590;2022-11-15T04:44:25;4.87;;;3.73;;
8737;SDS011;4405;49.272;8.590;2022-11-15T04:46:51;4.23;;;3.93;;
8737;SDS011;4405;49.272;8.590;2022-11-15T04:49:18;4.20;;;3.80;;
8737;SDS011;4405;49.272;8.590;2022-11-15T04:51:44;4.30;;;3.67;;
8737;SDS011;4405;49.272;8.590;2022-11-15T04:54:11;4.10;;;3.30;;
8737;SDS011;4405;49.272;8.590;2022-11-15T04:56:38;4.10;;;3.37;;
8737;SDS011;4405;49.272;8.590;2022-11-15T04:59:05;6.80;;;3.70;;
8737;SDS011;4405;49.272;8.590;2022-11-15T05:01:31;4.00;;;3.70;;
8737;SDS011;4405;49.272;8.590;2022-11-15T05:03:57;6.73;;;3.50;;
8737;SDS011;4405;49.272;8.590;2022-11-15T05:06:41;4.57;;;3.90;;
8737;SDS011;4405;49.272;8.590;2022-11-15T05:09:07;4.27;;;3.33;;
8737;SDS011;4405;49.272;8.590;2022-11-15T05:11:34;4.73;;;4.37;;
8737;SDS011;4405;49.272;8.590;2022-11-15T05:14:01;5.33;;;4.93;;
8737;SDS011;4405;49.272;8.590;2022-11-15T05:16:28;4.10;;;3.77;;
8737;SDS011;4405;49.272;8.590;2022-11-15T05:18:54;4.53;;;4.10;;
8737;SDS011;4405;49.272;8.590;2022-11-15T05:21:21;4.20;;;3.90;;
8737;SDS011;4405;49.272;8.590;2022-11-15T05:23:47;4.33;;;3.93;;
8737;SDS011;4405;49.272;8.590;2022-11-15T05:26:16;6.43;;;4.10;;
8737;SDS011;4405;49.272;8.590;2022-11-15T05:28:43;5.30;;;4.20;;
8737;SDS011;4405;49.272;8.590;2022-11-15T05:31:12;4.80;;;4.40;;
8737;SDS011;4405;49.272;8.590;2022-11-15T05:33:39;5.60;;;5.00;;
8737;SDS011;4405;49.272;8.590;2022-11-15T05:36:07;5.30;;;4.60;;
8737;SDS011;4405;49.272;8.590;2022-11-15T05:38:35;5.43;;;5.03;;
8737;SDS011;4405;49.272;8.590;2022-11-15T05:41:02;5.93;;;4.60;;
8737;SDS011;4405;49.272;8.590;2022-11-15T05:43:29;5.60;;;4.67;;
8737;SDS011;4405;49.272;8.590;2022-11-15T05:45:56;5.43;;;4.90;;
8737;SDS011;4405;49.272;8.590;2022-11-15T05:48:24;6.70;;;4.70;;
8737;SDS011;4405;49.272;8.590;2022-11-15T05:50:51;4.83;;;3.90;;
8737;SDS011;4405;49.272;8.590;2022-11-15T05:53:18;4.10;;;3.70;;
8737;SDS011;4405;49.272;8.590;2022-11-15T05:55:45;4.10;;;3.70;;
8737;SDS011;4405;49.272;8.590;2022-11-15T05:58:12;4.33;;;3.80;;
8737;SDS011;4405;49.272;8.590;2022-11-15T06:00:38;5.00;;;3.83;;
8737;SDS011;4405;49.272;8.590;2022-11-15T06:03:04;4.27;;;3.70;;
8737;SDS011;4405;49.272;8.590;2022-11-15T06:05:32;4.23;;;3.93;;
8737;SDS011;4405;49.272;8.590;2022-11-15T06:07:59;3.97;;;3.67;;
8737;SDS011;4405;49.272;8.590;2022-11-15T06:10:25;4.53;;;4.00;;
8737;SDS011;4405;49.272;8.590;2022-11-15T06:12:56;5.80;;;3.83;;
8737;SDS011;4405;49.272;8.590;2022-11-15T06:15:22;4.13;;;3.80;;
8737;SDS011;4405;49.272;8.590;2022-11-15T06:17:48;5.37;;;3.93;;
8737;SDS011;4405;49.272;8.590;2022-11-15T06:20:15;4.27;;;3.50;;
8737;SDS011;4405;49.272;8.590;2022-11-15T06:22:42;4.37;;;3.60;;
8737;SDS011;4405;49.272;8.590;2022-11-15T06:25:09;4.70;;;3.30;;
8737;SDS011;4405;49.272;8.590;2022-11-15T06:27:35;4.23;;;3.73;;
8737;SDS011;4405;49.272;8.590;2022-11-15T06:30:01;6.23;;;3.80;;
8737;SDS011;4405;49.272;8.590;2022-11-15T06:32:28;3.70;;;3.40;;
8737;SDS011;4405;49.272;8.590;2022-11-15T06:34:55;3.63;;;3.43;;
8737;SDS011;4405;49.272;8.590;2022-11-15T06:37:21;3.70;;;3.37;;
8737;SDS011;4405;49.272;8.590;2022-11-15T06:39:49;5.03;;;3.80;;
8737;SDS011;4405;49.272;8.590;2022-11-15T06:42:15;4.63;;;3.90;;
8737;SDS011;4405;49.272;8.590;2022-11-15T06:44:41;5.03;;;3.87;;
8737;SDS011;4405;49.272;8.590;2022-11-15T06:47:08;5.20;;;4.70;;
8737;SDS011;4405;49.272;8.590;2022-11-15T06:49:34;5.70;;;3.87;;
8737;SDS011;4405;49.272;8.590;2022-11-15T06:52:02;4.53;;;3.77;;
8737;SDS011;4405;49.272;8.590;2022-11-15T06:54:28;13.30;;;12.10;;
8737;SDS011;4405;49.272;8.590;2022-11-15T06:56:56;7.03;;;4.47;;
8737;SDS011;4405;49.272;8.590;2022-11-15T06:59:22;7.37;;;4.60;;
8737;SDS011;4405;49.272;8.590;2022-11-15T07:01:48;6.77;;;4.97;;
8737;SDS011;4405;49.272;8.590;2022-11-15T07:04:15;4.90;;;4.33;;
8737;SDS011;4405;49.272;8.590;2022-11-15T07:06:41;7.63;;;4.27;;
8737;SDS011;4405;49.272;8.590;2022-11-15T07:09:07;6.00;;;4.87;;
8737;SDS011;4405;49.272;8.590;2022-11-15T07:11:34;4.90;;;4.40;;
8737;SDS011;4405;49.272;8.590;2022-11-15T07:14:02;6.57;;;4.63;;
8737;SDS011;4405;49.272;8.590;2022-11-15T07:16:28;6.00;;;4.37;;
8737;SDS011;4405;49.272;8.590;2022-11-15T07:18:54;8.00;;;4.20;;
8737;SDS011;4405;49.272;8.590;2022-11-15T07:21:21;6.50;;;4.13;;
8737;SDS011;4405;49.272;8.590;2022-11-15T07:23:47;4.90;;;4.40;;
8737;SDS011;4405;49.272;8.590;2022-11-15T07:26:13;5.03;;;4.13;;
8737;SDS011;4405;49.272;8.590;2022-11-15T07:28:40;8.67;;;4.60;;
8737;SDS011;4405;49.272;8.590;2022-11-15T07:31:08;4.67;;;4.13;;
8737;SDS011;4405;49.272;8.590;2022-11-15T07:33:34;5.17;;;4.33;;
8737;SDS011;4405;49.272;8.590;2022-11-15T07:36:01;5.07;;;4.43;;
8737;SDS011;4405;49.272;8.590;2022-11-15T07:38:27;6.23;;;4.30;;
8737;SDS011;4405;49.272;8.590;2022-11-15T07:40:57;7.77;;;4.40;;
8737;SDS011;4405;49.272;8.590;2022-11-15T07:43:24;7.43;;;4.90;;
8737;SDS011;4405;49.272;8.590;2022-11-15T07:45:52;6.13;;;5.30;;
8737;SDS011;4405;49.272;8.590;2022-11-15T07:48:20;8.93;;;6.83;;
8737;SDS011;4405;49.272;8.590;2022-11-15T07:50:47;13.83;;;9.83;;
8737;SDS011;4405;49.272;8.590;2022-11-15T07:53:13;18.37;;;11.30;;
8737;SDS011;4405;49.272;8.590;2022-11-15T07:55:40;14.93;;;10.60;;
8737;SDS011;4405;49.272;8.590;2022-11-15T07:58:07;12.80;;;8.80;;
8737;SDS011;4405;49.272;8.590;2022-11-15T08:00:34;14.07;;;8.13;;
8737;SDS011;4405;49.272;8.590;2022-11-15T08:03:04;11.77;;;7.30;;
8737;SDS011;4405;49.272;8.590;2022-11-15T08:05:32;6.83;;;5.30;;
8737;SDS011;4405;49.272;8.590;2022-11-15T08:07:58;5.97;;;5.00;;
8737;SDS011;4405;49.272;8.590;2022-11-15T08:10:25;7.17;;;5.60;;
8737;SDS011;4405;49.272;8.590;2022-11-15T08:12:56;6.93;;;5.07;;
8737;SDS011;4405;49.272;8.590;2022-11-15T08:15:22;7.57;;;5.80;;
8737;SDS011;4405;49.272;8.590;2022-11-15T08:17:52;9.00;;;5.60;;
8737;SDS011;4405;49.272;8.590;2022-11-15T08:20:19;6.50;;;4.53;;
8737;SDS011;4405;49.272;8.590;2022-11-15T08:22:46;5.83;;;4.13;;
8737;SDS011;4405;49.272;8.590;2022-11-15T08:25:13;6.30;;;4.73;;
8737;SDS011;4405;49.272;8.590;2022-11-15T08:27:39;6.10;;;4.53;;
8737;SDS011;4405;49.272;8.590;2022-11-15T08:30:06;7.37;;;5.17;;
8737;SDS011;4405;49.272;8.590;2022-11-15T08:32:32;7.33;;;5.07;;
8737;SDS011;4405;49.272;8.590;2022-11-15T08:34:59;10.47;;;4.63;;
8737;SDS011;4405;49.272;8.590;2022-11-15T08:37:25;5.10;;;4.30;;
8737;SDS011;4405;49.272;8.590;2022-11-15T08:39:53;7.37;;;4.10;;
8737;SDS011;4405;49.272;8.590;2022-11-15T08:42:19;4.87;;;4.33;;
8737;SDS011;4405;49.272;8.590;2022-11-15T08:44:46;7.80;;;4.73;;
8737;SDS011;4405;49.272;8.590;2022-11-15T08:47:12;5.13;;;4.63;;
8737;SDS011;4405;49.272;8.590;2022-11-15T08:49:38;8.53;;;4.70;;
8737;SDS011;4405;49.272;8.590;2022-11-15T08:52:05;5.70;;;5.20;;
8737;SDS011;4405;49.272;8.590;2022-11-15T08:54:31;5.37;;;4.97;;
8737;SDS011;4405;49.272;8.590;2022-11-15T08:56:59;5.80;;;5.20;;
8737;SDS011;4405;49.272;8.590;2022-11-15T08:59:25;7.10;;;5.10;;
8737;SDS011;4405;49.272;8.590;2022-11-15T09:01:53;5.73;;;5.13;;
8737;SDS011;4405;49.272;8.590;2022-11-15T09:04:19;8.57;;;5.30;;
8737;SDS011;4405;49.272;8.590;2022-11-15T09:06:46;8.13;;;5.03;;
8737;SDS011;4405;49.272;8.590;2022-11-15T09:09:12;5.90;;;5.10;;
8737;SDS011;4405;49.272;8.590;2022-11-15T09:11:38;7.13;;;5.00;;
8737;SDS011;4405;49.272;8.590;2022-11-15T09:14:06;5.63;;;5.07;;
8737;SDS011;4405;49.272;8.590;2022-11-15T09:16:32;5.53;;;4.00;;
8737;SDS011;4405;49.272;8.590;2022-11-15T09:18:59;8.10;;;4.43;;
8737;SDS011;4405;49.272;8.590;2022-11-15T09:21:25;6.63;;;4.40;;
8737;SDS011;4405;49.272;8.590;2022-11-15T09:23:52;5.03;;;4.10;;
8737;SDS011;4405;49.272;8.590;2022-11-15T09:26:18;4.47;;;4.13;;
8737;SDS011;4405;49.272;8.590;2022-11-15T09:28:44;4.77;;;3.90;;
8737;SDS011;4405;49.272;8.590;2022-11-15T09:31:12;4.20;;;3.80;;
8737;SDS011;4405;49.272;8.590;2022-11-15T09:33:39;3.50;;;3.30;;
8737;SDS011;4405;49.272;8.590;2022-11-15T09:36:06;7.13;;;3.80;;
8737;SDS011;4405;49.272;8.590;2022-11-15T09:38:33;4.37;;;3.80;;
8737;SDS011;4405;49.272;8.590;2022-11-15T09:43:42;4.07;;;3.60;;
8737;SDS011;4405;49.272;8.590;2022-11-15T09:46:14;3.70;;;3.40;;
8737;SDS011;4405;49.272;8.590;2022-11-15T09:48:48;6.43;;;3.50;;
8737;SDS011;4405;49.272;8.590;2022-11-15T09:51:18;5.20;;;3.43;;
8737;SDS011;4405;49.272;8.590;2022-11-15T09:53:47;4.60;;;3.47;;
8737;SDS011;4405;49.272;8.590;2022-11-15T09:56:16;6.57;;;3.73;;
8737;SDS011;4405;49.272;8.590;2022-11-15T09:58:45;3.27;;;3.07;;
8737;SDS011;4405;49.272;8.590;2022-11-15T10:01:16;4.20;;;3.60;;
8737;SDS011;4405;49.272;8.590;2022-11-15T10:03:44;5.10;;;3.53;;
8737;SDS011;4405;49.272;8.590;2022-11-15T10:06:14;4.13;;;3.43;;
8737;SDS011;4405;49.272;8.590;2022-11-15T10:08:47;4.10;;;3.60;;
8737;SDS011;4405;49.272;8.590;2022-11-15T10:11:17;3.67;;;3.37;;
8737;SDS011;4405;49.272;8.590;2022-11-15T10:13:45;4.23;;;3.43;;
8737;SDS011;4405;49.272;8.590;2022-11-15T10:16:15;4.63;;;3.73;;
8737;SDS011;4405;49.272;8.590;2022-11-15T10:18:44;4.20;;;3.80;;
8737;SDS011;4405;49.272;8.590;2022-11-15T10:21:17;3.90;;;3.50;;
8737;SDS011;4405;49.272;8.590;2022-11-15T10:23:43;4.00;;;3.70;;
8737;SDS011;4405;49.272;8.590;2022-11-15T10:26:11;3.93;;;3.60;;
8737;SDS011;4405;49.272;8.590;2022-11-15T10:28:38;4.03;;;3.60;;
8737;SDS011;4405;49.272;8.590;2022-11-15T10:31:11;3.50;;;3.20;;
8737;SDS011;4405;49.272;8.590;2022-11-15T10:33:47;3.73;;;3.43;;
8737;SDS011;4405;49.272;8.590;2022-11-15T10:36:18;4.17;;;3.80;;
8737;SDS011;4405;49.272;8.590;2022-11-15T10:38:52;4.97;;;3.80;;
8737;SDS011;4405;49.272;8.590;2022-11-15T10:41:20;4.40;;;4.00;;
8737;SDS011;4405;49.272;8.590;2022-11-15T10:44:00;5.17;;;3.90;;
8737;SDS011;4405;49.272;8.590;2022-11-15T10:46:27;7.80;;;6.87;;
8737;SDS011;4405;49.272;8.590;2022-11-15T10:48:55;6.47;;;4.20;;
8737;SDS011;4405;49.272;8.590;2022-11-15T10:51:33;4.10;;;3.70;;
8737;SDS011;4405;49.272;8.590;2022-11-15T10:54:06;5.10;;;4.60;;
8737;SDS011;4405;49.272;8.590;2022-11-15T10:56:36;6.63;;;4.60;;
8737;SDS011;4405;49.272;8.590;2022-11-15T10:59:02;5.80;;;4.33;;
8737;SDS011;4405;49.272;8.590;2022-11-15T11:01:29;4.67;;;4.20;;
8737;SDS011;4405;49.272;8.590;2022-11-15T11:04:01;4.97;;;4.20;;
8737;SDS011;4405;49.272;8.590;2022-11-15T11:06:27;6.73;;;4.50;;
8737;SDS011;4405;49.272;8.590;2022-11-15T11:08:55;5.33;;;4.37;;
8737;SDS011;4405;49.272;8.590;2022-11-15T11:11:22;5.57;;;4.50;;
8737;SDS011;4405;49.272;8.590;2022-11-15T11:13:48;5.33;;;4.17;;
8737;SDS011;4405;49.272;8.590;2022-11-15T11:16:34;3.97;;;3.67;;
8737;SDS011;4405;49.272;8.590;2022-11-15T11:19:08;5.40;;;4.30;;
8737;SDS011;4405;49.272;8.590;2022-11-15T11:21:40;4.67;;;4.27;;
8737;SDS011;4405;49.272;8.590;2022-11-15T11:24:08;7.67;;;4.90;;
8737;SDS011;4405;49.272;8.590;2022-11-15T11:26:40;5.37;;;4.43;;
8737;SDS011;4405;49.272;8.590;2022-11-15T11:29:13;7.37;;;4.60;;
8737;SDS011;4405;49.272;8.590;2022-11-15T11:31:43;7.80;;;4.83;;
8737;SDS011;4405;49.272;8.590;2022-11-15T11:34:15;5.10;;;4.60;;
8737;SDS011;4405;49.272;8.590;2022-11-15T11:36:44;5.63;;;4.60;;
8737;SDS011;4405;49.272;8.590;2022-11-15T11:39:17;8.90;;;5.00;;
8737;SDS011;4405;49.272;8.590;2022-11-15T11:41:49;6.93;;;4.37;;
8737;SDS011;4405;49.272;8.590;2022-11-15T11:44:21;7.93;;;4.13;;
8737;SDS011;4405;49.272;8.590;2022-11-15T11:46:52;8.27;;;5.00;;
8737;SDS011;4405;49.272;8.590;2022-11-15T11:49:23;9.27;;;4.43;;
8737;SDS011;4405;49.272;8.590;2022-11-15T11:51:52;5.47;;;4.57;;
8737;SDS011;4405;49.272;8.590;2022-11-15T11:54:20;5.47;;;3.70;;
8737;SDS011;4405;49.272;8.590;2022-11-15T11:56:48;4.87;;;4.07;;
8737;SDS011;4405;49.272;8.590;2022-11-15T11:59:18;5.73;;;4.00;;
8737;SDS011;4405;49.272;8.590;2022-11-15T12:01:45;4.40;;;4.00;;
8737;SDS011;4405;49.272;8.590;2022-11-15T12:04:13;7.13;;;3.80;;
8737;SDS011;4405;49.272;8.590;2022-11-15T12:06:46;6.27;;;3.77;;
8737;SDS011;4405;49.272;8.590;2022-11-15T12:09:14;8.40;;;4.47;;
8737;SDS011;4405;49.272;8.590;2022-11-15T12:11:47;6.43;;;3.90;;
8737;SDS011;4405;49.272;8.590;2022-11-15T12:14:19;4.87;;;3.73;;
8737;SDS011;4405;49.272;8.590;2022-11-15T12:16:48;6.57;;;4.13;;
8737;SDS011;4405;49.272;8.590;2022-11-15T12:19:14;5.90;;;4.10;;
8737;SDS011;4405;49.272;8.590;2022-11-15T12:21:43;3.90;;;3.60;;
8737;SDS011;4405;49.272;8.590;2022-11-15T12:24:12;7.77;;;3.70;;
8737;SDS011;4405;49.272;8.590;2022-11-15T12:26:41;5.20;;;3.77;;
8737;SDS011;4405;49.272;8.590;2022-11-15T12:29:10;5.93;;;4.00;;
8737;SDS011;4405;49.272;8.590;2022-11-15T12:31:38;5.40;;;3.70;;
8737;SDS011;4405;49.272;8.590;2022-11-15T12:34:13;4.70;;;4.27;;
8737;SDS011;4405;49.272;8.590;2022-11-15T12:36:40;6.23;;;4.17;;
8737;SDS011;4405;49.272;8.590;2022-11-15T12:39:08;6.43;;;4.17;;
8737;SDS011;4405;49.272;8.590;2022-11-15T12:41:37;4.97;;;4.57;;
8737;SDS011;4405;49.272;8.590;2022-11-15T12:44:03;4.43;;;4.13;;
8737;SDS011;4405;49.272;8.590;2022-11-15T12:49:41;6.53;;;3.90;;
8737;SDS011;4405;49.272;8.590;2022-11-15T12:52:08;4.80;;;4.10;;
8737;SDS011;4405;49.272;8.590;2022-11-15T12:54:55;4.20;;;3.80;;
8737;SDS011;4405;49.272;8.590;2022-11-15T13:03:26;6.37;;;4.73;;
8737;SDS011;4405;49.272;8.590;2022-11-15T13:06:00;5.17;;;4.00;;
8737;SDS011;4405;49.272;8.590;2022-11-15T13:14:01;6.30;;;4.10;;
8737;SDS011;4405;49.272;8.590;2022-11-15T13:16:48;5.87;;;4.83;;
8737;SDS011;4405;49.272;8.590;2022-11-15T13:19:14;6.03;;;4.60;;
8737;SDS011;4405;49.272;8.590;2022-11-15T13:21:47;6.57;;;4.23;;
8737;SDS011;4405;49.272;8.590;2022-11-15T13:24:31;4.07;;;3.57;;
8737;SDS011;4405;49.272;8.590;2022-11-15T13:26:58;5.07;;;4.37;;
8737;SDS011;4405;49.272;8.590;2022-11-15T13:29:26;4.93;;;4.37;;
8737;SDS011;4405;49.272;8.590;2022-11-15T13:31:52;5.80;;;4.27;;
8737;SDS011;4405;49.272;8.590;2022-11-15T13:34:27;4.87;;;4.03;;
8737;SDS011;4405;49.272;8.590;2022-11-15T13:36:54;5.60;;;3.87;;
8737;SDS011;4405;49.272;8.590;2022-11-15T13:39:25;5.60;;;5.10;;
8737;SDS011;4405;49.272;8.590;2022-11-15T13:41:52;5.10;;;4.60;;
8737;SDS011;4405;49.272;8.590;2022-11-15T13:44:19;4.67;;;4.20;;
8737;SDS011;4405;49.272;8.590;2022-11-15T13:46:47;7.80;;;6.93;;
8737;SDS011;4405;49.272;8.590;2022-11-15T13:49:14;5.67;;;5.27;;
8737;SDS011;4405;49.272;8.590;2022-11-15T13:51:42;5.43;;;4.87;;
8737;SDS011;4405;49.272;8.590;2022-11-15T13:54:12;4.20;;;3.80;;
8737;SDS011;4405;49.272;8.590;2022-11-15T13:56:40;4.50;;;3.60;;
8737;SDS011;4405;49.272;8.590;2022-11-15T13:59:09;3.90;;;3.60;;
8737;SDS011;4405;49.272;8.590;2022-11-15T14:01:35;6.57;;;4.10;;
8737;SDS011;4405;49.272;8.590;2022-11-15T14:04:04;3.77;;;3.47;;
8737;SDS011;4405;49.272;8.590;2022-11-15T14:06:30;6.97;;;6.27;;
8737;SDS011;4405;49.272;8.590;2022-11-15T14:08:58;7.20;;;5.73;;
8737;SDS011;4405;49.272;8.590;2022-11-15T14:11:25;6.17;;;5.57;;
8737;SDS011;4405;49.272;8.590;2022-11-15T14:14:02;4.87;;;4.13;;
8737;SDS011;4405;49.272;8.590;2022-11-15T14:16:32;5.53;;;3.97;;
8737;SDS011;4405;49.272;8.590;2022-11-15T14:18:59;4.97;;;4.10;;
8737;SDS011;4405;49.272;8.590;2022-11-15T14:21:27;5.27;;;3.83;;
8737;SDS011;4405;49.272;8.590;2022-11-15T14:23:54;4.27;;;4.00;;
8737;SDS011;4405;49.272;8.590;2022-11-15T14:26:39;5.60;;;4.23;;
8737;SDS011;4405;49.272;8.590;2022-11-15T14:29:22;5.23;;;3.97;;
8737;SDS011;4405;49.272;8.590;2022-11-15T14:31:48;5.60;;;4.23;;
8737;SDS011;4405;49.272;8.590;2022-11-15T14:34:14;5.97;;;4.67;;
8737;SDS011;4405;49.272;8.590;2022-11-15T14:36:42;10.30;;;4.50;;
8737;SDS011;4405;49.272;8.590;2022-11-15T14:39:08;4.73;;;4.30;;
8737;SDS011;4405;49.272;8.590;2022-11-15T14:41:35;9.47;;;4.27;;
8737;SDS011;4405;49.272;8.590;2022-11-15T14:44:03;9.33;;;4.87;;
8737;SDS011;4405;49.272;8.590;2022-11-15T14:46:29;6.70;;;4.50;;
8737;SDS011;4405;49.272;8.590;2022-11-15T14:48:56;6.27;;;4.57;;
8737;SDS011;4405;49.272;8.590;2022-11-15T14:51:22;6.57;;;5.00;;
8737;SDS011;4405;49.272;8.590;2022-11-15T14:53:50;5.57;;;4.33;;
8737;SDS011;4405;49.272;8.590;2022-11-15T14:56:17;7.97;;;4.27;;
8737;SDS011;4405;49.272;8.590;2022-11-15T14:58:43;8.23;;;4.20;;
8737;SDS011;4405;49.272;8.590;2022-11-15T15:01:11;8.43;;;4.43;;
8737;SDS011;4405;49.272;8.590;2022-11-15T15:03:38;4.50;;;3.70;;
8737;SDS011;4405;49.272;8.590;2022-11-15T15:06:05;6.40;;;4.07;;
8737;SDS011;4405;49.272;8.590;2022-11-15T15:08:31;3.80;;;3.50;;
8737;SDS011;4405;49.272;8.590;2022-11-15T15:10:59;3.37;;;3.17;;
8737;SDS011;4405;49.272;8.590;2022-11-15T15:13:25;6.83;;;3.50;;
8737;SDS011;4405;49.272;8.590;2022-11-15T15:15:53;3.80;;;3.60;;
8737;SDS011;4405;49.272;8.590;2022-11-15T15:18:20;4.80;;;4.10;;
8737;SDS011;4405;49.272;8.590;2022-11-15T15:20:47;4.57;;;3.77;;
8737;SDS011;4405;49.272;8.590;2022-11-15T15:23:15;5.33;;;3.77;;
8737;SDS011;4405;49.272;8.590;2022-11-15T15:25:42;6.23;;;3.50;;
8737;SDS011;4405;49.272;8.590;2022-11-15T15:28:11;5.23;;;4.37;;
8737;SDS011;4405;49.272;8.590;2022-11-15T15:30:38;6.80;;;4.90;;
8737;SDS011;4405;49.272;8.590;2022-11-15T15:33:04;6.10;;;5.23;;
8737;SDS011;4405;49.272;8.590;2022-11-15T15:35:31;5.30;;;4.20;;
8737;SDS011;4405;49.272;8.590;2022-11-15T15:37:58;5.03;;;4.33;;
8737;SDS011;4405;49.272;8.590;2022-11-15T15:40:25;4.27;;;3.93;;
8737;SDS011;4405;49.272;8.590;2022-11-15T15:42:53;5.03;;;4.27;;